sensor_id;sensor_type;location;lat;lon;timestamp;pressure;altitude;pressure_sealevel;temperature;humidity
53514;BME280;39768;54.148;12.174;2023-05-23T00:02:27;101218.94;;;13.94;nan
53514;BME280;39768;54.148;12.174;2023-05-23T00:23:11;101192.25;;;13.88;nan
53514;BME280;39768;54.148;12.174;2023-05-23T00:27:40;101191.03;;;13.28;nan
53514;BME280;39768;54.148;12.174;2023-05-23T01:24:02;101166.09;;;13.24;nan
53514;BME280;39768;54.148;12.174;2023-05-23T01:39:43;101157.16;;;13.24;nan
53514;BME280;39768;54.148;12.174;2023-05-23T01:50:01;101154.16;;;11.82;nan
53514;BME280;39768;54.148;12.174;2023-05-23T01:54:04;101146.22;;;12.57;nan
53514;BME280;39768;54.148;12.174;2023-05-23T01:58:06;101154.69;;;13.18;nan
53514;BME280;39768;54.148;12.174;2023-05-23T02:02:09;101142.22;;;12.93;nan
53514;BME280;39768;54.148;12.174;2023-05-23T02:20:58;101133.09;;;12.23;nan
53514;BME280;39768;54.148;12.174;2023-05-23T02:25:00;101119.97;;;12.90;nan
53514;BME280;39768;54.148;12.174;2023-05-23T02:29:02;101136.69;;;12.96;nan
53514;BME280;39768;54.148;12.174;2023-05-23T02:33:05;101128.06;;;13.12;nan
53514;BME280;39768;54.148;12.174;2023-05-23T03:32:01;101075.69;;;13.00;nan
53514;BME280;39768;54.148;12.174;2023-05-23T03:36:03;101081.66;;;13.30;nan
53514;BME280;39768;54.148;12.174;2023-05-23T03:40:06;101075.16;;;13.36;nan
53514;BME280;39768;54.148;12.174;2023-05-23T03:44:08;101069.56;;;13.40;nan
53514;BME280;39768;54.148;12.174;2023-05-23T03:48:37;101074.19;;;12.93;nan
53514;BME280;39768;54.148;12.174;2023-05-23T03:52:38;101073.09;;;12.97;nan
53514;BME280;39768;54.148;12.174;2023-05-23T04:13:40;101074.28;;;13.79;nan
53514;BME280;39768;54.148;12.174;2023-05-23T04:17:44;101071.88;;;13.93;nan
53514;BME280;39768;54.148;12.174;2023-05-23T04:21:46;101068.59;;;14.07;nan
53514;BME280;39768;54.148;12.174;2023-05-23T04:25:50;101069.47;;;14.07;nan
53514;BME280;39768;54.148;12.174;2023-05-23T04:29:58;101080.63;;;14.18;nan
53514;BME280;39768;54.148;12.174;2023-05-23T04:34:01;101079.00;;;14.34;nan
53514;BME280;39768;54.148;12.174;2023-05-23T04:38:24;101066.59;;;14.52;nan
53514;BME280;39768;54.148;12.174;2023-05-23T04:42:26;101065.13;;;14.64;nan
53514;BME280;39768;54.148;12.174;2023-05-23T04:46:44;101077.28;;;14.54;nan
53514;BME280;39768;54.148;12.174;2023-05-23T04:51:12;101075.25;;;14.59;nan
53514;BME280;39768;54.148;12.174;2023-05-23T04:55:21;101071.41;;;14.64;nan
53514;BME280;39768;54.148;12.174;2023-05-23T04:59:23;101072.50;;;14.20;nan
53514;BME280;39768;54.148;12.174;2023-05-23T05:03:25;101072.59;;;13.54;nan
53514;BME280;39768;54.148;12.174;2023-05-23T05:19:08;101070.00;;;14.56;nan
53514;BME280;39768;54.148;12.174;2023-05-23T05:23:10;101071.22;;;14.28;nan
53514;BME280;39768;54.148;12.174;2023-05-23T05:27:12;101070.63;;;14.81;nan
53514;BME280;39768;54.148;12.174;2023-05-23T05:31:14;101059.41;;;14.90;nan
53514;BME280;39768;54.148;12.174;2023-05-23T05:35:17;101062.97;;;14.91;nan
53514;BME280;39768;54.148;12.174;2023-05-23T05:39:23;101063.34;;;15.02;nan
53514;BME280;39768;54.148;12.174;2023-05-23T05:43:25;101062.53;;;14.81;nan
53514;BME280;39768;54.148;12.174;2023-05-23T05:47:27;101057.50;;;14.92;nan
53514;BME280;39768;54.148;12.174;2023-05-23T05:51:29;101061.44;;;15.23;nan
53514;BME280;39768;54.148;12.174;2023-05-23T05:55:32;101064.28;;;14.82;nan
53514;BME280;39768;54.148;12.174;2023-05-23T05:59:34;101055.78;;;15.10;nan
53514;BME280;39768;54.148;12.174;2023-05-23T06:03:36;101053.94;;;15.11;nan
53514;BME280;39768;54.148;12.174;2023-05-23T06:07:39;101051.59;;;15.40;nan
53514;BME280;39768;54.148;12.174;2023-05-23T06:11:41;101047.88;;;14.29;nan
53514;BME280;39768;54.148;12.174;2023-05-23T06:15:42;101051.03;;;14.18;nan
53514;BME280;39768;54.148;12.174;2023-05-23T06:19:46;101045.19;;;15.24;nan
53514;BME280;39768;54.148;12.174;2023-05-23T06:23:48;101044.34;;;15.60;nan
53514;BME280;39768;54.148;12.174;2023-05-23T06:27:50;101046.19;;;15.94;nan
53514;BME280;39768;54.148;12.174;2023-05-23T06:31:52;101045.94;;;15.81;nan
53514;BME280;39768;54.148;12.174;2023-05-23T06:35:54;101053.31;;;15.95;nan
53514;BME280;39768;54.148;12.174;2023-05-23T06:39:57;101050.94;;;15.71;nan
53514;BME280;39768;54.148;12.174;2023-05-23T06:43:59;101049.94;;;15.91;nan
53514;BME280;39768;54.148;12.174;2023-05-23T06:48:04;101051.75;;;16.25;nan
53514;BME280;39768;54.148;12.174;2023-05-23T06:52:08;101050.16;;;16.38;nan
53514;BME280;39768;54.148;12.174;2023-05-23T06:56:10;101060.19;;;16.36;nan
53514;BME280;39768;54.148;12.174;2023-05-23T07:00:22;101057.78;;;16.48;nan
53514;BME280;39768;54.148;12.174;2023-05-23T07:04:40;101050.06;;;16.40;nan
53514;BME280;39768;54.148;12.174;2023-05-23T07:08:49;101045.22;;;16.46;nan
53514;BME280;39768;54.148;12.174;2023-05-23T07:12:51;101043.44;;;16.63;nan
53514;BME280;39768;54.148;12.174;2023-05-23T07:16:55;101056.34;;;16.73;nan
53514;BME280;39768;54.148;12.174;2023-05-23T07:20:57;101048.56;;;16.67;nan
53514;BME280;39768;54.148;12.174;2023-05-23T07:24:59;101060.25;;;16.68;nan
53514;BME280;39768;54.148;12.174;2023-05-23T07:29:05;101056.06;;;16.62;nan
53514;BME280;39768;54.148;12.174;2023-05-23T07:33:08;101054.34;;;16.77;nan
53514;BME280;39768;54.148;12.174;2023-05-23T07:37:10;101062.78;;;17.04;nan
53514;BME280;39768;54.148;12.174;2023-05-23T07:41:17;101058.59;;;17.30;nan
53514;BME280;39768;54.148;12.174;2023-05-23T07:45:18;101055.81;;;17.31;nan
53514;BME280;39768;54.148;12.174;2023-05-23T07:49:20;101058.88;;;17.09;nan
53514;BME280;39768;54.148;12.174;2023-05-23T07:53:22;101067.72;;;16.80;nan
53514;BME280;39768;54.148;12.174;2023-05-23T07:57:24;101075.06;;;16.61;nan
53514;BME280;39768;54.148;12.174;2023-05-23T08:01:27;101074.06;;;16.11;nan
53514;BME280;39768;54.148;12.174;2023-05-23T08:05:51;101089.97;;;15.64;nan
53514;BME280;39768;54.148;12.174;2023-05-23T08:09:53;101099.03;;;15.26;nan
53514;BME280;39768;54.148;12.174;2023-05-23T08:13:56;101095.09;;;14.95;nan
53514;BME280;39768;54.148;12.174;2023-05-23T08:18:18;101114.84;;;14.57;nan
53514;BME280;39768;54.148;12.174;2023-05-23T08:22:21;101111.13;;;14.39;nan
53514;BME280;39768;54.148;12.174;2023-05-23T08:26:23;101116.44;;;14.61;nan
53514;BME280;39768;54.148;12.174;2023-05-23T08:30:26;101119.66;;;14.49;nan
53514;BME280;39768;54.148;12.174;2023-05-23T08:34:28;101111.09;;;14.80;nan
53514;BME280;39768;54.148;12.174;2023-05-23T08:38:30;101129.63;;;14.47;nan
53514;BME280;39768;54.148;12.174;2023-05-23T08:42:55;101132.94;;;14.74;nan
53514;BME280;39768;54.148;12.174;2023-05-23T08:47:01;101131.84;;;14.78;nan
53514;BME280;39768;54.148;12.174;2023-05-23T08:51:20;101135.09;;;14.86;nan
53514;BME280;39768;54.148;12.174;2023-05-23T08:55:24;101131.63;;;15.02;nan
53514;BME280;39768;54.148;12.174;2023-05-23T08:59:32;101137.47;;;14.92;nan
53514;BME280;39768;54.148;12.174;2023-05-23T09:03:36;101130.69;;;15.41;nan
53514;BME280;39768;54.148;12.174;2023-05-23T09:07:49;101132.00;;;15.87;nan
53514;BME280;39768;54.148;12.174;2023-05-23T09:11:54;101135.13;;;16.14;nan
53514;BME280;39768;54.148;12.174;2023-05-23T09:16:00;101132.06;;;16.22;nan
53514;BME280;39768;54.148;12.174;2023-05-23T09:20:15;101134.31;;;16.12;nan
53514;BME280;39768;54.148;12.174;2023-05-23T09:24:35;101137.63;;;15.83;nan
53514;BME280;39768;54.148;12.174;2023-05-23T09:28:42;101139.50;;;15.81;nan
53514;BME280;39768;54.148;12.174;2023-05-23T09:32:56;101140.16;;;15.86;nan
53514;BME280;39768;54.148;12.174;2023-05-23T09:36:58;101137.91;;;15.59;nan
53514;BME280;39768;54.148;12.174;2023-05-23T09:41:00;101143.28;;;15.03;nan
53514;BME280;39768;54.148;12.174;2023-05-23T09:45:02;101148.06;;;14.76;nan
53514;BME280;39768;54.148;12.174;2023-05-23T09:49:15;101147.84;;;15.20;nan
53514;BME280;39768;54.148;12.174;2023-05-23T09:53:24;101148.38;;;15.28;nan
53514;BME280;39768;54.148;12.174;2023-05-23T09:57:27;101160.34;;;14.63;nan
53514;BME280;39768;54.148;12.174;2023-05-23T10:01:30;101155.44;;;14.52;nan
53514;BME280;39768;54.148;12.174;2023-05-23T10:05:46;101167.56;;;14.62;nan
53514;BME280;39768;54.148;12.174;2023-05-23T10:09:54;101178.91;;;14.89;nan
53514;BME280;39768;54.148;12.174;2023-05-23T10:14:06;101185.41;;;14.85;nan
53514;BME280;39768;54.148;12.174;2023-05-23T10:18:15;101186.47;;;14.81;nan
53514;BME280;39768;54.148;12.174;2023-05-23T10:22:19;101183.75;;;15.01;nan
53514;BME280;39768;54.148;12.174;2023-05-23T10:26:21;101179.28;;;14.61;nan
53514;BME280;39768;54.148;12.174;2023-05-23T10:30:25;101188.03;;;14.66;nan
53514;BME280;39768;54.148;12.174;2023-05-23T10:34:36;101185.31;;;15.26;nan
53514;BME280;39768;54.148;12.174;2023-05-23T10:38:48;101190.34;;;15.15;nan
53514;BME280;39768;54.148;12.174;2023-05-23T10:42:56;101197.94;;;15.63;nan
53514;BME280;39768;54.148;12.174;2023-05-23T10:47:02;101195.44;;;15.21;nan
53514;BME280;39768;54.148;12.174;2023-05-23T10:51:12;101196.84;;;15.48;nan
53514;BME280;39768;54.148;12.174;2023-05-23T10:55:15;101205.84;;;14.89;nan
53514;BME280;39768;54.148;12.174;2023-05-23T10:59:21;101206.13;;;14.63;nan
53514;BME280;39768;54.148;12.174;2023-05-23T11:03:30;101201.91;;;14.57;nan
53514;BME280;39768;54.148;12.174;2023-05-23T11:07:34;101205.94;;;14.25;nan
53514;BME280;39768;54.148;12.174;2023-05-23T11:15:49;101215.03;;;14.01;nan
53514;BME280;39768;54.148;12.174;2023-05-23T11:20:05;101215.09;;;13.78;nan
53514;BME280;39768;54.148;12.174;2023-05-23T11:24:08;101225.41;;;13.88;nan
53514;BME280;39768;54.148;12.174;2023-05-23T11:28:11;101225.56;;;14.07;nan
53514;BME280;39768;54.148;12.174;2023-05-23T11:32:13;101234.63;;;14.47;nan
53514;BME280;39768;54.148;12.174;2023-05-23T11:36:20;101234.78;;;14.44;nan
53514;BME280;39768;54.148;12.174;2023-05-23T11:40:33;101239.84;;;14.29;nan
53514;BME280;39768;54.148;12.174;2023-05-23T11:44:35;101248.53;;;13.71;nan
53514;BME280;39768;54.148;12.174;2023-05-23T11:48:37;101247.00;;;13.40;nan
53514;BME280;39768;54.148;12.174;2023-05-23T11:52:45;101253.53;;;14.03;nan
53514;BME280;39768;54.148;12.174;2023-05-23T11:56:51;101249.69;;;13.87;nan
53514;BME280;39768;54.148;12.174;2023-05-23T12:01:00;101269.72;;;13.80;nan
53514;BME280;39768;54.148;12.174;2023-05-23T12:05:07;101268.75;;;13.57;nan
53514;BME280;39768;54.148;12.174;2023-05-23T12:09:11;101284.00;;;13.57;nan
53514;BME280;39768;54.148;12.174;2023-05-23T12:13:13;101280.97;;;13.43;nan
53514;BME280;39768;54.148;12.174;2023-05-23T12:17:16;101283.91;;;13.37;nan
53514;BME280;39768;54.148;12.174;2023-05-23T12:21:18;101287.69;;;12.81;nan
53514;BME280;39768;54.148;12.174;2023-05-23T12:25:19;101286.44;;;12.91;nan
53514;BME280;39768;54.148;12.174;2023-05-23T12:29:32;101280.13;;;13.17;nan
53514;BME280;39768;54.148;12.174;2023-05-23T12:33:39;101287.47;;;13.12;nan
53514;BME280;39768;54.148;12.174;2023-05-23T12:37:45;101295.28;;;12.95;nan
53514;BME280;39768;54.148;12.174;2023-05-23T12:41:47;101296.75;;;12.79;nan
53514;BME280;39768;54.148;12.174;2023-05-23T12:45:49;101303.00;;;12.51;nan
53514;BME280;39768;54.148;12.174;2023-05-23T12:49:50;101308.34;;;12.25;nan
53514;BME280;39768;54.148;12.174;2023-05-23T12:53:53;101312.84;;;12.24;nan
53514;BME280;39768;54.148;12.174;2023-05-23T12:57:54;101328.75;;;12.03;nan
53514;BME280;39768;54.148;12.174;2023-05-23T13:01:56;101334.41;;;11.63;nan
53514;BME280;39768;54.148;12.174;2023-05-23T13:05:59;101338.06;;;11.91;nan
53514;BME280;39768;54.148;12.174;2023-05-23T13:10:01;101329.72;;;11.71;nan
53514;BME280;39768;54.148;12.174;2023-05-23T13:14:02;101334.31;;;11.66;nan
53514;BME280;39768;54.148;12.174;2023-05-23T13:18:04;101340.41;;;11.40;nan
53514;BME280;39768;54.148;12.174;2023-05-23T13:22:06;101339.06;;;11.56;nan
53514;BME280;39768;54.148;12.174;2023-05-23T13:26:10;101350.38;;;11.35;nan
53514;BME280;39768;54.148;12.174;2023-05-23T13:30:12;101351.63;;;11.21;nan
53514;BME280;39768;54.148;12.174;2023-05-23T13:34:14;101359.41;;;11.32;nan
53514;BME280;39768;54.148;12.174;2023-05-23T13:38:19;101360.84;;;11.11;nan
53514;BME280;39768;54.148;12.174;2023-05-23T13:42:21;101358.22;;;10.74;nan
53514;BME280;39768;54.148;12.174;2023-05-23T13:51:44;101371.88;;;10.25;nan
53514;BME280;39768;54.148;12.174;2023-05-23T13:55:46;101375.78;;;10.49;nan
53514;BME280;39768;54.148;12.174;2023-05-23T13:59:47;101378.69;;;10.40;nan
53514;BME280;39768;54.148;12.174;2023-05-23T14:03:49;101387.66;;;10.37;nan
53514;BME280;39768;54.148;12.174;2023-05-23T14:07:51;101391.28;;;10.35;nan
53514;BME280;39768;54.148;12.174;2023-05-23T14:11:53;101403.69;;;10.37;nan
53514;BME280;39768;54.148;12.174;2023-05-23T14:15:55;101397.09;;;10.55;nan
53514;BME280;39768;54.148;12.174;2023-05-23T14:19:57;101395.06;;;10.65;nan
53514;BME280;39768;54.148;12.174;2023-05-23T14:23:59;101401.56;;;10.53;nan
53514;BME280;39768;54.148;12.174;2023-05-23T14:28:01;101405.25;;;10.47;nan
53514;BME280;39768;54.148;12.174;2023-05-23T14:32:04;101411.13;;;10.25;nan
53514;BME280;39768;54.148;12.174;2023-05-23T14:36:06;101405.53;;;9.95;nan
53514;BME280;39768;54.148;12.174;2023-05-23T14:40:08;101415.47;;;10.29;nan
53514;BME280;39768;54.148;12.174;2023-05-23T14:44:26;101414.03;;;10.54;nan
53514;BME280;39768;54.148;12.174;2023-05-23T14:48:28;101422.09;;;10.52;nan
53514;BME280;39768;54.148;12.174;2023-05-23T14:52:30;101421.09;;;10.58;nan
53514;BME280;39768;54.148;12.174;2023-05-23T14:56:32;101426.19;;;10.69;nan
53514;BME280;39768;54.148;12.174;2023-05-23T15:00:33;101424.78;;;10.90;nan
53514;BME280;39768;54.148;12.174;2023-05-23T15:04:35;101431.50;;;11.06;nan
53514;BME280;39768;54.148;12.174;2023-05-23T15:08:37;101425.78;;;10.85;nan
53514;BME280;39768;54.148;12.174;2023-05-23T15:12:39;101425.03;;;11.16;nan
53514;BME280;39768;54.148;12.174;2023-05-23T15:16:41;101424.03;;;11.18;nan
53514;BME280;39768;54.148;12.174;2023-05-23T15:20:45;101430.84;;;11.32;nan
53514;BME280;39768;54.148;12.174;2023-05-23T15:24:46;101426.19;;;11.38;nan
53514;BME280;39768;54.148;12.174;2023-05-23T15:28:48;101422.59;;;11.39;nan
53514;BME280;39768;54.148;12.174;2023-05-23T15:32:50;101422.13;;;11.23;nan
53514;BME280;39768;54.148;12.174;2023-05-23T15:36:52;101425.75;;;11.55;nan
53514;BME280;39768;54.148;12.174;2023-05-23T15:40:55;101429.78;;;11.71;nan
53514;BME280;39768;54.148;12.174;2023-05-23T15:45:03;101430.34;;;11.50;nan
53514;BME280;39768;54.148;12.174;2023-05-23T15:49:06;101432.75;;;11.61;nan
53514;BME280;39768;54.148;12.174;2023-05-23T15:53:22;101437.44;;;11.85;nan
53514;BME280;39768;54.148;12.174;2023-05-23T15:57:23;101438.13;;;11.61;nan
53514;BME280;39768;54.148;12.174;2023-05-23T16:01:25;101439.69;;;12.00;nan
53514;BME280;39768;54.148;12.174;2023-05-23T16:05:27;101432.06;;;11.52;nan
53514;BME280;39768;54.148;12.174;2023-05-23T16:09:28;101431.72;;;11.66;nan
53514;BME280;39768;54.148;12.174;2023-05-23T16:13:30;101434.03;;;12.09;nan
53514;BME280;39768;54.148;12.174;2023-05-23T16:17:32;101440.63;;;11.67;nan
53514;BME280;39768;54.148;12.174;2023-05-23T16:21:33;101439.13;;;11.89;nan
53514;BME280;39768;54.148;12.174;2023-05-23T16:31:54;101446.06;;;12.55;nan
53514;BME280;39768;54.148;12.174;2023-05-23T17:08:45;101465.09;;;11.19;nan
53514;BME280;39768;54.148;12.174;2023-05-23T17:12:47;101464.91;;;11.27;nan
53514;BME280;39768;54.148;12.174;2023-05-23T17:16:49;101462.34;;;11.22;nan
53514;BME280;39768;54.148;12.174;2023-05-23T17:20:50;101461.41;;;11.25;nan
53514;BME280;39768;54.148;12.174;2023-05-23T17:24:52;101467.72;;;11.22;nan
53514;BME280;39768;54.148;12.174;2023-05-23T17:28:54;101473.09;;;11.20;nan
53514;BME280;39768;54.148;12.174;2023-05-23T17:32:56;101465.31;;;11.11;nan
53514;BME280;39768;54.148;12.174;2023-05-23T17:36:58;101483.09;;;11.14;nan
53514;BME280;39768;54.148;12.174;2023-05-23T17:40:59;101484.66;;;10.87;nan
53514;BME280;39768;54.148;12.174;2023-05-23T17:45:01;101493.19;;;10.66;nan
53514;BME280;39768;54.148;12.174;2023-05-23T17:49:04;101488.53;;;11.11;nan
53514;BME280;39768;54.148;12.174;2023-05-23T17:53:06;101492.19;;;10.70;nan
53514;BME280;39768;54.148;12.174;2023-05-23T17:57:08;101496.75;;;10.66;nan
53514;BME280;39768;54.148;12.174;2023-05-23T18:01:09;101494.72;;;10.76;nan
53514;BME280;39768;54.148;12.174;2023-05-23T18:05:12;101504.44;;;10.80;nan
53514;BME280;39768;54.148;12.174;2023-05-23T18:09:14;101502.59;;;10.83;nan
53514;BME280;39768;54.148;12.174;2023-05-23T18:13:15;101499.44;;;10.65;nan
53514;BME280;39768;54.148;12.174;2023-05-23T18:17:17;101512.16;;;10.55;nan
53514;BME280;39768;54.148;12.174;2023-05-23T18:21:20;101520.78;;;10.26;nan
53514;BME280;39768;54.148;12.174;2023-05-23T18:25:21;101518.84;;;10.33;nan
53514;BME280;39768;54.148;12.174;2023-05-23T18:29:28;101526.59;;;10.45;nan
53514;BME280;39768;54.148;12.174;2023-05-23T18:33:30;101529.19;;;10.49;nan
53514;BME280;39768;54.148;12.174;2023-05-23T18:37:32;101524.19;;;10.33;nan
53514;BME280;39768;54.148;12.174;2023-05-23T18:41:34;101534.78;;;9.94;nan
53514;BME280;39768;54.148;12.174;2023-05-23T18:45:36;101527.53;;;9.99;nan
53514;BME280;39768;54.148;12.174;2023-05-23T18:49:38;101537.44;;;9.96;nan
53514;BME280;39768;54.148;12.174;2023-05-23T18:53:39;101535.94;;;9.79;nan
53514;BME280;39768;54.148;12.174;2023-05-23T18:57:42;101541.25;;;9.82;nan
53514;BME280;39768;54.148;12.174;2023-05-23T19:01:44;101538.69;;;9.75;nan
53514;BME280;39768;54.148;12.174;2023-05-23T19:05:46;101549.94;;;9.94;nan
53514;BME280;39768;54.148;12.174;2023-05-23T19:09:48;101556.31;;;9.85;nan
53514;BME280;39768;54.148;12.174;2023-05-23T19:13:50;101558.81;;;9.96;nan
53514;BME280;39768;54.148;12.174;2023-05-23T19:17:51;101561.28;;;9.57;nan
53514;BME280;39768;54.148;12.174;2023-05-23T19:21:53;101559.47;;;9.58;nan
53514;BME280;39768;54.148;12.174;2023-05-23T19:25:55;101560.25;;;9.66;nan
53514;BME280;39768;54.148;12.174;2023-05-23T19:29:57;101564.72;;;9.65;nan
53514;BME280;39768;54.148;12.174;2023-05-23T19:33:59;101571.81;;;9.68;nan
53514;BME280;39768;54.148;12.174;2023-05-23T19:38:00;101569.44;;;9.50;nan
53514;BME280;39768;54.148;12.174;2023-05-23T19:42:02;101574.06;;;9.37;nan
53514;BME280;39768;54.148;12.174;2023-05-23T19:46:04;101568.91;;;9.25;nan
53514;BME280;39768;54.148;12.174;2023-05-23T19:50:08;101575.72;;;9.47;nan
53514;BME280;39768;54.148;12.174;2023-05-23T19:54:10;101574.84;;;9.45;nan
53514;BME280;39768;54.148;12.174;2023-05-23T19:58:13;101575.91;;;9.32;nan
53514;BME280;39768;54.148;12.174;2023-05-23T20:02:16;101578.28;;;9.53;nan
53514;BME280;39768;54.148;12.174;2023-05-23T20:06:18;101572.09;;;9.50;nan
53514;BME280;39768;54.148;12.174;2023-05-23T20:10:21;101574.59;;;9.59;nan
53514;BME280;39768;54.148;12.174;2023-05-23T20:14:22;101587.41;;;9.38;nan
53514;BME280;39768;54.148;12.174;2023-05-23T20:18:24;101584.03;;;9.81;nan
53514;BME280;39768;54.148;12.174;2023-05-23T20:22:26;101576.56;;;9.49;nan
53514;BME280;39768;54.148;12.174;2023-05-23T20:26:27;101583.59;;;9.55;nan
53514;BME280;39768;54.148;12.174;2023-05-23T20:30:29;101587.06;;;9.60;nan
53514;BME280;39768;54.148;12.174;2023-05-23T20:34:31;101593.47;;;9.50;nan
53514;BME280;39768;54.148;12.174;2023-05-23T20:38:32;101587.44;;;9.35;nan
53514;BME280;39768;54.148;12.174;2023-05-23T20:42:34;101585.22;;;9.65;nan
53514;BME280;39768;54.148;12.174;2023-05-23T20:46:37;101596.25;;;9.42;nan
53514;BME280;39768;54.148;12.174;2023-05-23T20:50:41;101595.44;;;9.37;nan
53514;BME280;39768;54.148;12.174;2023-05-23T20:54:44;101599.44;;;9.67;nan
53514;BME280;39768;54.148;12.174;2023-05-23T20:58:48;101603.00;;;9.66;nan
53514;BME280;39768;54.148;12.174;2023-05-23T21:02:50;101604.09;;;9.54;nan
53514;BME280;39768;54.148;12.174;2023-05-23T21:06:51;101608.56;;;9.54;nan
53514;BME280;39768;54.148;12.174;2023-05-23T21:10:53;101609.75;;;9.33;nan
53514;BME280;39768;54.148;12.174;2023-05-23T21:14:55;101611.25;;;9.52;nan
53514;BME280;39768;54.148;12.174;2023-05-23T21:19:00;101614.91;;;9.45;nan
53514;BME280;39768;54.148;12.174;2023-05-23T21:23:01;101611.50;;;9.34;nan
53514;BME280;39768;54.148;12.174;2023-05-23T21:27:04;101620.38;;;9.36;nan
53514;BME280;39768;54.148;12.174;2023-05-23T21:31:06;101607.94;;;9.33;nan
53514;BME280;39768;54.148;12.174;2023-05-23T21:35:08;101603.47;;;9.35;nan
53514;BME280;39768;54.148;12.174;2023-05-23T21:39:10;101619.41;;;9.41;nan
53514;BME280;39768;54.148;12.174;2023-05-23T21:43:13;101617.59;;;9.43;nan
53514;BME280;39768;54.148;12.174;2023-05-23T21:47:15;101628.41;;;9.34;nan
53514;BME280;39768;54.148;12.174;2023-05-23T21:51:17;101617.22;;;9.09;nan
53514;BME280;39768;54.148;12.174;2023-05-23T21:55:19;101625.84;;;9.27;nan
53514;BME280;39768;54.148;12.174;2023-05-23T21:59:21;101622.06;;;9.43;nan
53514;BME280;39768;54.148;12.174;2023-05-23T22:03:23;101626.53;;;9.42;nan
53514;BME280;39768;54.148;12.174;2023-05-23T22:07:25;101622.00;;;9.49;nan
53514;BME280;39768;54.148;12.174;2023-05-23T22:11:27;101626.44;;;9.49;nan
53514;BME280;39768;54.148;12.174;2023-05-23T22:15:34;101619.53;;;9.32;nan
53514;BME280;39768;54.148;12.174;2023-05-23T22:19:37;101628.19;;;9.51;nan
53514;BME280;39768;54.148;12.174;2023-05-23T22:23:38;101631.59;;;9.59;nan
53514;BME280;39768;54.148;12.174;2023-05-23T22:27:40;101630.84;;;9.53;nan
53514;BME280;39768;54.148;12.174;2023-05-23T22:31:42;101634.44;;;9.50;nan
53514;BME280;39768;54.148;12.174;2023-05-23T22:35:44;101637.13;;;9.49;nan
53514;BME280;39768;54.148;12.174;2023-05-23T22:39:45;101636.78;;;9.70;nan
53514;BME280;39768;54.148;12.174;2023-05-23T22:43:47;101635.13;;;9.63;nan
53514;BME280;39768;54.148;12.174;2023-05-23T22:47:49;101630.97;;;9.43;nan
53514;BME280;39768;54.148;12.174;2023-05-23T22:51:51;101635.75;;;9.78;nan
53514;BME280;39768;54.148;12.174;2023-05-23T22:55:53;101641.53;;;9.53;nan
53514;BME280;39768;54.148;12.174;2023-05-23T22:59:55;101633.72;;;9.37;nan
53514;BME280;39768;54.148;12.174;2023-05-23T23:03:56;101631.78;;;9.49;nan
53514;BME280;39768;54.148;12.174;2023-05-23T23:07:58;101638.56;;;9.69;nan
53514;BME280;39768;54.148;12.174;2023-05-23T23:11:59;101640.44;;;9.64;nan
53514;BME280;39768;54.148;12.174;2023-05-23T23:40:16;101629.13;;;6.82;nan
53514;BME280;39768;54.148;12.174;2023-05-23T23:44:18;101618.34;;;8.20;nan
53514;BME280;39768;54.148;12.174;2023-05-23T23:48:19;101620.94;;;8.24;nan
53514;BME280;39768;54.148;12.174;2023-05-23T23:52:21;101619.09;;;8.31;nan
53514;BME280;39768;54.148;12.174;2023-05-23T23:56:23;101632.41;;;8.35;nan
